TGL31 LICC-LCLK
Flight info
| Callsign | TGL31 |
|---|---|
| Flight time | 2h 18m |
| Altitude | 36000 |
| Route | PIMOR DCT DODEL DCT BELIX/N0428F370 DCT TITUS DCT EPALO DCT KPC DCT TOSKA DCT BONEK |
| Aircraft | A320/M-SDE3FGHIRWY/LB1 |
Departure
| Time | 2026-05-07 15:32 |
|---|---|
| Airport | Catania-Fontanarossa Airport (LICC) |
Arrival
| Time | 2026-05-07 17:51 |
|---|---|
| Airport | Larnaca International Airport (LCLK) |
| Time | Latitude | Longitude | Altitude | Speed | Heading |
|---|---|---|---|---|---|
| 2026-05-07 14:47 | 37.46948 | 15.06527 | 27 ft | 0 kts | 18° |
| 2026-05-07 15:09 | 37.46933 | 15.06521 | 28 ft | 4 kts | 18° |
| 2026-05-07 15:09 | 37.46908 | 15.06510 | 31 ft | 4 kts | 18° |
| 2026-05-07 15:09 | 37.46883 | 15.06499 | 32 ft | 4 kts | 31° |
| 2026-05-07 15:09 | 37.46864 | 15.06490 | 26 ft | 4 kts | 6° |
| 2026-05-07 15:10 | 37.46842 | 15.06495 | 27 ft | 4 kts | 307° |
| 2026-05-07 15:10 | 37.46835 | 15.06524 | 27 ft | 4 kts | 265° |
| 2026-05-07 15:10 | 37.46836 | 15.06538 | 27 ft | 1 kts | 263° |
| 2026-05-07 15:10 | 37.46836 | 15.06539 | 27 ft | 0 kts | 263° |
| 2026-05-07 15:14 | 37.46937 | 15.06576 | 26 ft | 0 kts | 18° |
| 2026-05-07 15:22 | 37.46934 | 15.06575 | 26 ft | 3 kts | 19° |
| 2026-05-07 15:23 | 37.46909 | 15.06564 | 26 ft | 4 kts | 19° |
| 2026-05-07 15:23 | 37.46886 | 15.06554 | 27 ft | 2 kts | 14° |
| 2026-05-07 15:23 | 37.46864 | 15.06550 | 27 ft | 4 kts | 351° |
| 2026-05-07 15:23 | 37.46844 | 15.06563 | 27 ft | 4 kts | 293° |
| 2026-05-07 15:24 | 37.46840 | 15.06586 | 28 ft | 0 kts | 264° |
| 2026-05-07 15:26 | 37.46840 | 15.06581 | 28 ft | 2 kts | 264° |
| 2026-05-07 15:26 | 37.46838 | 15.06548 | 27 ft | 6 kts | 265° |
| 2026-05-07 15:26 | 37.46833 | 15.06482 | 27 ft | 9 kts | 261° |
| 2026-05-07 15:27 | 37.46824 | 15.06400 | 28 ft | 10 kts | 263° |
| 2026-05-07 15:27 | 37.46817 | 15.06323 | 29 ft | 8 kts | 264° |
| 2026-05-07 15:27 | 37.46812 | 15.06259 | 31 ft | 7 kts | 264° |
| 2026-05-07 15:27 | 37.46808 | 15.06201 | 32 ft | 7 kts | 265° |
| 2026-05-07 15:28 | 37.46803 | 15.06133 | 34 ft | 9 kts | 265° |
| 2026-05-07 15:28 | 37.46798 | 15.06057 | 34 ft | 10 kts | 264° |
| 2026-05-07 15:28 | 37.46790 | 15.05967 | 35 ft | 11 kts | 262° |
| 2026-05-07 15:28 | 37.46779 | 15.05865 | 36 ft | 12 kts | 262° |
| 2026-05-07 15:29 | 37.46769 | 15.05757 | 37 ft | 12 kts | 263° |
| 2026-05-07 15:29 | 37.46762 | 15.05659 | 38 ft | 11 kts | 265° |
| 2026-05-07 15:29 | 37.46755 | 15.05568 | 36 ft | 9 kts | 263° |
| 2026-05-07 15:29 | 37.46747 | 15.05493 | 39 ft | 9 kts | 263° |
| 2026-05-07 15:30 | 37.46740 | 15.05398 | 40 ft | 12 kts | 264° |
| 2026-05-07 15:30 | 37.46707 | 15.05301 | 40 ft | 12 kts | 226° |
| 2026-05-07 15:30 | 37.46647 | 15.05225 | 37 ft | 12 kts | 223° |
| 2026-05-07 15:30 | 37.46577 | 15.05194 | 39 ft | 10 kts | 156° |
| 2026-05-07 15:31 | 37.46561 | 15.05255 | 39 ft | 9 kts | 83° |
| 2026-05-07 15:31 | 37.46568 | 15.05339 | 37 ft | 8 kts | 84° |
| 2026-05-07 15:31 | 37.46570 | 15.05364 | 37 ft | 18 kts | 84° |
| 2026-05-07 15:31 | 37.46612 | 15.05835 | 34 ft | 87 kts | 83° |
| 2026-05-07 15:32 | 37.46697 | 15.06818 | 91 ft | 132 kts | 84° |
| 2026-05-07 15:32 | 37.46778 | 15.08006 | 612 ft | 140 kts | 84° |
| 2026-05-07 15:32 | 37.46888 | 15.09218 | 1269 ft | 140 kts | 84° |
| 2026-05-07 15:32 | 37.47041 | 15.10443 | 1884 ft | 148 kts | 84° |
| 2026-05-07 15:33 | 37.47250 | 15.11830 | 2094 ft | 173 kts | 79° |
| 2026-05-07 15:33 | 37.47521 | 15.13399 | 2477 ft | 193 kts | 77° |
| 2026-05-07 15:33 | 37.47836 | 15.15087 | 3106 ft | 204 kts | 77° |
| 2026-05-07 15:33 | 37.48128 | 15.16929 | 3571 ft | 224 kts | 80° |
| 2026-05-07 15:34 | 37.48384 | 15.18916 | 4224 ft | 236 kts | 81° |
| 2026-05-07 15:34 | 37.48636 | 15.20978 | 5038 ft | 240 kts | 82° |
| 2026-05-07 15:34 | 37.48930 | 15.23067 | 5793 ft | 247 kts | 81° |
| 2026-05-07 15:34 | 37.49250 | 15.25294 | 6169 ft | 270 kts | 84° |
| 2026-05-07 15:35 | 37.49556 | 15.27717 | 6574 ft | 289 kts | 85° |
| 2026-05-07 15:35 | 37.49868 | 15.30248 | 7224 ft | 297 kts | 83° |
| 2026-05-07 15:35 | 37.50200 | 15.32834 | 7957 ft | 302 kts | 83° |
| 2026-05-07 15:35 | 37.50550 | 15.35474 | 8659 ft | 308 kts | 83° |
| 2026-05-07 15:36 | 37.50916 | 15.38155 | 9402 ft | 313 kts | 82° |
| 2026-05-07 15:36 | 37.51290 | 15.40876 | 10102 ft | 318 kts | 82° |
| 2026-05-07 15:36 | 37.51678 | 15.43695 | 10442 ft | 338 kts | 82° |
| 2026-05-07 15:36 | 37.52085 | 15.46664 | 10687 ft | 358 kts | 82° |
| 2026-05-07 15:37 | 37.52515 | 15.49792 | 11242 ft | 366 kts | 82° |
| 2026-05-07 15:37 | 37.52952 | 15.52970 | 11901 ft | 371 kts | 82° |
| 2026-05-07 15:37 | 37.53393 | 15.56191 | 12584 ft | 375 kts | 82° |
| 2026-05-07 15:37 | 37.53836 | 15.59444 | 13265 ft | 379 kts | 82° |
| 2026-05-07 15:38 | 37.54283 | 15.62736 | 13891 ft | 383 kts | 82° |
| 2026-05-07 15:38 | 37.54734 | 15.66065 | 14464 ft | 387 kts | 82° |
| 2026-05-07 15:38 | 37.55185 | 15.69427 | 15056 ft | 391 kts | 82° |
| 2026-05-07 15:38 | 37.55641 | 15.72825 | 15634 ft | 395 kts | 81° |
| 2026-05-07 15:39 | 37.56103 | 15.76259 | 16205 ft | 400 kts | 81° |
| 2026-05-07 15:39 | 37.56571 | 15.79732 | 16772 ft | 404 kts | 81° |
| 2026-05-07 15:39 | 37.57044 | 15.83237 | 17342 ft | 408 kts | 81° |
| 2026-05-07 15:39 | 37.57512 | 15.86782 | 17927 ft | 412 kts | 82° |
| 2026-05-07 15:40 | 37.57901 | 15.90373 | 18524 ft | 413 kts | 84° |
| 2026-05-07 15:40 | 37.58212 | 15.93994 | 19012 ft | 417 kts | 85° |
| 2026-05-07 15:40 | 37.58485 | 15.97646 | 19497 ft | 421 kts | 86° |
| 2026-05-07 15:40 | 37.58748 | 16.01334 | 19939 ft | 425 kts | 85° |
| 2026-05-07 15:41 | 37.59020 | 16.05062 | 20393 ft | 429 kts | 85° |
| 2026-05-07 15:41 | 37.59308 | 16.08824 | 20840 ft | 433 kts | 85° |
| 2026-05-07 15:41 | 37.59611 | 16.12624 | 21284 ft | 437 kts | 85° |
| 2026-05-07 15:41 | 37.59881 | 16.16459 | 21711 ft | 441 kts | 89° |
| 2026-05-07 15:42 | 37.59753 | 16.20327 | 22137 ft | 443 kts | 99° |
| 2026-05-07 15:42 | 37.59140 | 16.24131 | 22563 ft | 444 kts | 108° |
| 2026-05-07 15:42 | 37.58335 | 16.27904 | 22991 ft | 448 kts | 108° |
| 2026-05-07 15:42 | 37.57527 | 16.31666 | 23396 ft | 452 kts | 108° |
| 2026-05-07 15:43 | 37.56700 | 16.35501 | 23747 ft | 455 kts | 108° |
| 2026-05-07 15:43 | 37.55866 | 16.39369 | 24066 ft | 459 kts | 108° |
| 2026-05-07 15:43 | 37.55026 | 16.43270 | 24388 ft | 463 kts | 108° |
| 2026-05-07 15:43 | 37.54179 | 16.47205 | 24710 ft | 467 kts | 108° |
| 2026-05-07 15:44 | 37.53325 | 16.51170 | 25029 ft | 471 kts | 108° |
| 2026-05-07 15:44 | 37.52463 | 16.55163 | 25349 ft | 474 kts | 108° |
| 2026-05-07 15:44 | 37.51596 | 16.59185 | 25658 ft | 478 kts | 108° |
| 2026-05-07 15:44 | 37.50724 | 16.63236 | 25972 ft | 481 kts | 108° |
| 2026-05-07 15:45 | 37.49843 | 16.67315 | 26283 ft | 485 kts | 108° |
| 2026-05-07 15:45 | 37.48950 | 16.71426 | 26569 ft | 488 kts | 108° |
| 2026-05-07 15:45 | 37.48048 | 16.75566 | 26846 ft | 492 kts | 108° |
| 2026-05-07 15:45 | 37.47136 | 16.79734 | 27135 ft | 496 kts | 108° |
| 2026-05-07 15:46 | 37.45287 | 16.88163 | 27718 ft | 503 kts | 108° |
| 2026-05-07 15:46 | 37.44352 | 16.92421 | 28012 ft | 506 kts | 108° |
| 2026-05-07 15:46 | 37.43410 | 16.96699 | 28293 ft | 510 kts | 108° |
| 2026-05-07 15:47 | 37.42460 | 17.01014 | 28577 ft | 513 kts | 108° |
| 2026-05-07 15:47 | 37.41517 | 17.05296 | 28848 ft | 516 kts | 108° |
| 2026-05-07 15:47 | 37.40552 | 17.09667 | 29070 ft | 521 kts | 108° |
| 2026-05-07 15:47 | 37.39576 | 17.14072 | 29326 ft | 525 kts | 108° |
| 2026-05-07 15:48 | 37.38596 | 17.18500 | 29629 ft | 526 kts | 108° |
| 2026-05-07 15:48 | 37.37613 | 17.22931 | 29981 ft | 526 kts | 108° |
| 2026-05-07 15:48 | 37.36624 | 17.27367 | 30298 ft | 526 kts | 108° |
| 2026-05-07 15:48 | 37.35633 | 17.31799 | 30573 ft | 527 kts | 108° |
| 2026-05-07 15:49 | 37.34640 | 17.36239 | 30828 ft | 529 kts | 108° |
| 2026-05-07 15:49 | 37.33643 | 17.40690 | 31072 ft | 530 kts | 108° |
| 2026-05-07 15:49 | 37.32643 | 17.45147 | 31408 ft | 529 kts | 108° |
| 2026-05-07 15:49 | 37.31645 | 17.49587 | 31784 ft | 527 kts | 108° |
| 2026-05-07 15:50 | 37.30649 | 17.54006 | 32136 ft | 526 kts | 108° |
| 2026-05-07 15:50 | 37.29653 | 17.58422 | 32493 ft | 525 kts | 108° |
| 2026-05-07 15:50 | 37.28659 | 17.62823 | 32835 ft | 524 kts | 108° |
| 2026-05-07 15:50 | 37.27662 | 17.67214 | 33170 ft | 523 kts | 108° |
| 2026-05-07 15:51 | 37.26665 | 17.71606 | 33509 ft | 522 kts | 108° |
| 2026-05-07 15:51 | 37.25667 | 17.75986 | 33850 ft | 521 kts | 108° |
| 2026-05-07 15:51 | 37.24682 | 17.80293 | 34196 ft | 519 kts | 108° |
| 2026-05-07 15:51 | 37.23675 | 17.84700 | 34502 ft | 518 kts | 108° |
| 2026-05-07 15:52 | 37.22696 | 17.88973 | 34775 ft | 517 kts | 108° |
| 2026-05-07 15:52 | 37.21700 | 17.93312 | 35029 ft | 517 kts | 108° |
| 2026-05-07 15:52 | 37.20707 | 17.97638 | 35274 ft | 516 kts | 108° |
| 2026-05-07 15:52 | 37.19711 | 18.01967 | 35516 ft | 516 kts | 108° |
| 2026-05-07 15:53 | 37.18712 | 18.06295 | 35746 ft | 516 kts | 108° |
| 2026-05-07 15:53 | 37.17714 | 18.10616 | 35924 ft | 516 kts | 108° |
| 2026-05-07 15:53 | 37.16720 | 18.14923 | 35972 ft | 513 kts | 108° |
| 2026-05-07 15:54 | 37.14742 | 18.23489 | 35973 ft | 511 kts | 108° |
| 2026-05-07 15:54 | 37.12752 | 18.32030 | 35974 ft | 510 kts | 108° |
| 2026-05-07 15:55 | 37.10756 | 18.40555 | 35970 ft | 510 kts | 108° |
| 2026-05-07 15:55 | 37.08755 | 18.49088 | 35982 ft | 511 kts | 108° |
| 2026-05-07 15:56 | 37.06742 | 18.57629 | 35993 ft | 511 kts | 108° |
| 2026-05-07 15:56 | 37.04719 | 18.66165 | 35990 ft | 511 kts | 108° |
| 2026-05-07 15:57 | 37.02697 | 18.74704 | 36001 ft | 511 kts | 108° |
| 2026-05-07 15:57 | 37.00675 | 18.83231 | 35987 ft | 512 kts | 107° |
| 2026-05-07 15:58 | 36.98650 | 18.91728 | 36077 ft | 515 kts | 108° |
| 2026-05-07 15:58 | 36.97621 | 18.96027 | 36237 ft | 516 kts | 108° |
| 2026-05-07 15:58 | 36.96588 | 19.00335 | 36438 ft | 517 kts | 108° |
| 2026-05-07 15:58 | 36.95535 | 19.04629 | 36641 ft | 517 kts | 108° |
| 2026-05-07 15:59 | 36.94453 | 19.08907 | 36846 ft | 516 kts | 109° |
| 2026-05-07 15:59 | 36.93350 | 19.13177 | 36995 ft | 517 kts | 108° |
| 2026-05-07 15:59 | 36.92237 | 19.17451 | 37019 ft | 517 kts | 108° |
| 2026-05-07 16:00 | 36.90011 | 19.26001 | 37017 ft | 517 kts | 108° |
| 2026-05-07 16:00 | 36.87808 | 19.34555 | 37020 ft | 517 kts | 108° |
| 2026-05-07 16:01 | 36.85613 | 19.43115 | 37029 ft | 517 kts | 108° |
| 2026-05-07 16:01 | 36.83411 | 19.51656 | 37028 ft | 516 kts | 108° |
| 2026-05-07 16:02 | 36.81191 | 19.60174 | 37033 ft | 516 kts | 108° |
| 2026-05-07 16:02 | 36.79339 | 19.67245 | 37036 ft | 516 kts | 108° |
| 2026-05-07 16:03 | 36.77112 | 19.75758 | 37040 ft | 516 kts | 108° |
| 2026-05-07 16:03 | 36.74886 | 19.84261 | 37040 ft | 516 kts | 108° |
| 2026-05-07 16:04 | 36.72656 | 19.92765 | 37046 ft | 516 kts | 108° |
| 2026-05-07 16:04 | 36.70413 | 20.01264 | 37054 ft | 516 kts | 108° |
| 2026-05-07 16:05 | 36.68154 | 20.09746 | 37063 ft | 516 kts | 108° |
| 2026-05-07 16:05 | 36.65888 | 20.18230 | 37062 ft | 516 kts | 108° |
| 2026-05-07 16:06 | 36.63629 | 20.26715 | 37064 ft | 516 kts | 108° |
| 2026-05-07 16:06 | 36.61374 | 20.35151 | 37069 ft | 517 kts | 108° |
| 2026-05-07 16:07 | 36.59095 | 20.43641 | 37067 ft | 517 kts | 108° |
| 2026-05-07 16:07 | 36.56810 | 20.52113 | 37072 ft | 516 kts | 108° |
| 2026-05-07 16:08 | 36.54528 | 20.60586 | 37078 ft | 516 kts | 108° |
| 2026-05-07 16:08 | 36.52239 | 20.69050 | 37081 ft | 516 kts | 108° |
| 2026-05-07 16:09 | 36.49933 | 20.77503 | 37085 ft | 516 kts | 108° |
| 2026-05-07 16:09 | 36.47624 | 20.85951 | 37081 ft | 516 kts | 108° |
| 2026-05-07 16:10 | 36.45314 | 20.94398 | 37077 ft | 516 kts | 108° |
| 2026-05-07 16:10 | 36.42999 | 21.02852 | 37074 ft | 517 kts | 108° |
| 2026-05-07 16:11 | 36.40689 | 21.11246 | 37077 ft | 517 kts | 108° |
| 2026-05-07 16:11 | 36.38356 | 21.19689 | 37079 ft | 518 kts | 108° |
| 2026-05-07 16:12 | 36.36015 | 21.28139 | 37080 ft | 518 kts | 108° |
| 2026-05-07 16:12 | 36.33666 | 21.36590 | 37079 ft | 518 kts | 107° |
| 2026-05-07 16:13 | 36.32090 | 21.45276 | 37084 ft | 516 kts | 98° |
| 2026-05-07 16:13 | 36.30747 | 21.54025 | 37085 ft | 517 kts | 99° |
| 2026-05-07 16:14 | 36.29387 | 21.62777 | 37093 ft | 517 kts | 99° |
| 2026-05-07 16:14 | 36.28017 | 21.71533 | 37094 ft | 517 kts | 99° |
| 2026-05-07 16:15 | 36.26646 | 21.80288 | 37126 ft | 517 kts | 98° |
| 2026-05-07 16:15 | 36.25273 | 21.89047 | 37092 ft | 519 kts | 97° |
| 2026-05-07 16:16 | 36.23886 | 21.97829 | 37083 ft | 520 kts | 97° |
| 2026-05-07 16:16 | 36.22478 | 22.06629 | 37094 ft | 521 kts | 98° |
| 2026-05-07 16:17 | 36.21062 | 22.15382 | 37103 ft | 522 kts | 97° |
| 2026-05-07 16:17 | 36.19643 | 22.24185 | 37107 ft | 522 kts | 97° |
| 2026-05-07 16:18 | 36.18222 | 22.32997 | 37119 ft | 522 kts | 97° |
| 2026-05-07 16:18 | 36.16796 | 22.41812 | 37119 ft | 522 kts | 97° |
| 2026-05-07 16:19 | 36.15363 | 22.50626 | 37129 ft | 522 kts | 97° |
| 2026-05-07 16:19 | 36.13920 | 22.59433 | 37130 ft | 522 kts | 97° |
| 2026-05-07 16:20 | 36.12471 | 22.68232 | 37136 ft | 522 kts | 97° |
| 2026-05-07 16:20 | 36.11012 | 22.77031 | 37151 ft | 522 kts | 97° |
| 2026-05-07 16:21 | 36.09547 | 22.85833 | 37166 ft | 522 kts | 97° |
| 2026-05-07 16:21 | 36.08076 | 22.94618 | 37164 ft | 522 kts | 97° |
| 2026-05-07 16:22 | 36.06603 | 23.03401 | 37159 ft | 522 kts | 97° |
| 2026-05-07 16:22 | 36.05114 | 23.12179 | 37168 ft | 522 kts | 96° |
| 2026-05-07 16:23 | 36.03630 | 23.20946 | 37163 ft | 521 kts | 96° |
| 2026-05-07 16:23 | 36.02151 | 23.29654 | 37153 ft | 521 kts | 96° |
| 2026-05-07 16:24 | 36.00657 | 23.38407 | 37145 ft | 521 kts | 96° |
| 2026-05-07 16:24 | 35.99156 | 23.47155 | 37152 ft | 520 kts | 96° |
| 2026-05-07 16:25 | 35.97650 | 23.55885 | 37152 ft | 520 kts | 96° |
| 2026-05-07 16:25 | 35.96129 | 23.64613 | 37153 ft | 519 kts | 96° |
| 2026-05-07 16:26 | 35.94609 | 23.73322 | 37146 ft | 519 kts | 96° |
| 2026-05-07 16:26 | 35.93087 | 23.82028 | 37157 ft | 519 kts | 96° |
| 2026-05-07 16:27 | 35.91559 | 23.90722 | 37152 ft | 518 kts | 96° |
| 2026-05-07 16:27 | 35.90026 | 23.99405 | 37150 ft | 518 kts | 96° |
| 2026-05-07 16:28 | 35.88484 | 24.08085 | 37159 ft | 518 kts | 96° |
| 2026-05-07 16:28 | 35.86937 | 24.16761 | 37147 ft | 518 kts | 96° |
| 2026-05-07 16:29 | 35.85379 | 24.25437 | 37143 ft | 518 kts | 96° |
| 2026-05-07 16:29 | 35.83820 | 24.34103 | 37141 ft | 518 kts | 96° |
| 2026-05-07 16:30 | 35.82255 | 24.42770 | 37149 ft | 518 kts | 96° |
| 2026-05-07 16:30 | 35.80678 | 24.51448 | 37135 ft | 519 kts | 96° |
| 2026-05-07 16:31 | 35.79109 | 24.60071 | 37132 ft | 519 kts | 96° |
| 2026-05-07 16:31 | 35.77526 | 24.68759 | 37133 ft | 520 kts | 96° |
| 2026-05-07 16:32 | 35.75934 | 24.77442 | 37140 ft | 520 kts | 96° |
| 2026-05-07 16:32 | 35.74325 | 24.86120 | 37141 ft | 520 kts | 96° |
| 2026-05-07 16:33 | 35.72712 | 24.94801 | 37140 ft | 520 kts | 96° |
| 2026-05-07 16:33 | 35.71133 | 25.03474 | 37109 ft | 518 kts | 94° |
| 2026-05-07 16:34 | 35.69930 | 25.12167 | 37130 ft | 513 kts | 91° |
| 2026-05-07 16:34 | 35.68955 | 25.20861 | 37138 ft | 512 kts | 90° |
| 2026-05-07 16:35 | 35.67918 | 25.29538 | 37138 ft | 513 kts | 91° |
| 2026-05-07 16:35 | 35.66768 | 25.38204 | 37141 ft | 513 kts | 92° |
| 2026-05-07 16:36 | 35.65593 | 25.46862 | 37136 ft | 513 kts | 92° |
| 2026-05-07 16:36 | 35.64444 | 25.55461 | 37138 ft | 513 kts | 91° |
| 2026-05-07 16:37 | 35.63297 | 25.64124 | 37154 ft | 513 kts | 91° |
| 2026-05-07 16:37 | 35.62142 | 25.72790 | 37142 ft | 514 kts | 91° |
| 2026-05-07 16:38 | 35.60972 | 25.81458 | 37133 ft | 514 kts | 91° |
| 2026-05-07 16:38 | 35.59792 | 25.90127 | 37133 ft | 514 kts | 91° |
| 2026-05-07 16:39 | 35.58612 | 25.98797 | 37148 ft | 514 kts | 91° |
| 2026-05-07 16:39 | 35.57425 | 26.07470 | 37141 ft | 515 kts | 91° |
| 2026-05-07 16:40 | 35.56230 | 26.16145 | 37139 ft | 515 kts | 91° |
| 2026-05-07 16:40 | 35.55029 | 26.24820 | 37141 ft | 515 kts | 91° |
| 2026-05-07 16:41 | 35.53824 | 26.33488 | 37161 ft | 515 kts | 91° |
| 2026-05-07 16:41 | 35.52612 | 26.42149 | 37154 ft | 515 kts | 91° |
| 2026-05-07 16:42 | 35.51400 | 26.50751 | 37145 ft | 514 kts | 91° |
| 2026-05-07 16:42 | 35.50172 | 26.59408 | 37158 ft | 514 kts | 91° |
| 2026-05-07 16:43 | 35.48939 | 26.68055 | 37167 ft | 514 kts | 91° |
| 2026-05-07 16:43 | 35.47699 | 26.76696 | 37165 ft | 514 kts | 91° |
| 2026-05-07 16:44 | 35.46458 | 26.85332 | 37158 ft | 514 kts | 91° |
| 2026-05-07 16:44 | 35.45211 | 26.93960 | 37185 ft | 513 kts | 92° |
| 2026-05-07 16:45 | 35.43961 | 27.02574 | 37193 ft | 513 kts | 92° |
| 2026-05-07 16:45 | 35.42700 | 27.11181 | 37182 ft | 512 kts | 92° |
| 2026-05-07 16:46 | 35.41442 | 27.19771 | 37186 ft | 512 kts | 92° |
| 2026-05-07 16:46 | 35.40174 | 27.28344 | 37153 ft | 509 kts | 92° |
| 2026-05-07 16:47 | 35.38906 | 27.36865 | 37153 ft | 508 kts | 92° |
| 2026-05-07 16:47 | 35.37634 | 27.45379 | 37152 ft | 508 kts | 93° |
| 2026-05-07 16:48 | 35.36358 | 27.53874 | 37148 ft | 505 kts | 94° |
| 2026-05-07 16:48 | 35.35086 | 27.62333 | 37149 ft | 505 kts | 94° |
| 2026-05-07 16:49 | 35.33807 | 27.70791 | 37152 ft | 505 kts | 94° |
| 2026-05-07 16:49 | 35.32525 | 27.79185 | 37151 ft | 505 kts | 94° |
| 2026-05-07 16:50 | 35.31235 | 27.87632 | 37147 ft | 505 kts | 94° |
| 2026-05-07 16:50 | 35.30149 | 27.94708 | 37147 ft | 505 kts | 94° |
| 2026-05-07 16:51 | 35.28632 | 28.04519 | 37146 ft | 505 kts | 94° |
| 2026-05-07 16:51 | 35.27535 | 28.11590 | 37169 ft | 504 kts | 94° |
| 2026-05-07 16:52 | 35.26222 | 28.20008 | 37165 ft | 503 kts | 94° |
| 2026-05-07 16:52 | 35.24912 | 28.28410 | 37163 ft | 502 kts | 94° |
| 2026-05-07 16:53 | 35.23592 | 28.36804 | 37162 ft | 502 kts | 94° |
| 2026-05-07 16:53 | 35.22272 | 28.45130 | 37176 ft | 501 kts | 95° |
| 2026-05-07 16:54 | 35.20941 | 28.53492 | 37170 ft | 501 kts | 95° |
| 2026-05-07 16:54 | 35.19605 | 28.61843 | 37165 ft | 500 kts | 95° |
| 2026-05-07 16:55 | 35.18266 | 28.70195 | 37166 ft | 500 kts | 95° |
| 2026-05-07 16:55 | 35.16933 | 28.78531 | 37166 ft | 499 kts | 95° |
| 2026-05-07 16:56 | 35.15593 | 28.86856 | 37159 ft | 499 kts | 95° |
| 2026-05-07 16:56 | 35.13547 | 28.99336 | 37170 ft | 499 kts | 96° |
| 2026-05-07 16:57 | 35.12182 | 29.07643 | 37174 ft | 498 kts | 95° |
| 2026-05-07 16:57 | 35.10819 | 29.15924 | 37173 ft | 497 kts | 95° |
| 2026-05-07 16:58 | 35.09460 | 29.24197 | 37169 ft | 496 kts | 95° |
| 2026-05-07 16:58 | 35.08106 | 29.32390 | 37183 ft | 495 kts | 96° |
| 2026-05-07 16:59 | 35.06740 | 29.40624 | 37179 ft | 494 kts | 96° |
| 2026-05-07 16:59 | 35.05362 | 29.48824 | 37175 ft | 493 kts | 96° |
| 2026-05-07 17:00 | 35.03984 | 29.57008 | 37182 ft | 492 kts | 96° |
| 2026-05-07 17:00 | 35.02607 | 29.65162 | 37181 ft | 490 kts | 96° |
| 2026-05-07 17:01 | 35.01228 | 29.73286 | 37192 ft | 488 kts | 97° |
| 2026-05-07 17:01 | 34.99848 | 29.81393 | 37180 ft | 487 kts | 97° |
| 2026-05-07 17:02 | 34.98472 | 29.89476 | 37183 ft | 486 kts | 97° |
| 2026-05-07 17:02 | 34.97116 | 29.97536 | 37173 ft | 483 kts | 94° |
| 2026-05-07 17:03 | 34.96858 | 30.04237 | 37166 ft | 472 kts | 80° |
| 2026-05-07 17:03 | 34.97308 | 30.13188 | 37163 ft | 471 kts | 81° |
| 2026-05-07 17:04 | 34.97678 | 30.21164 | 37167 ft | 471 kts | 81° |
| 2026-05-07 17:04 | 34.98038 | 30.29135 | 37166 ft | 471 kts | 81° |
| 2026-05-07 17:05 | 34.98397 | 30.37103 | 37157 ft | 471 kts | 81° |
| 2026-05-07 17:05 | 34.98754 | 30.45076 | 37162 ft | 470 kts | 82° |
| 2026-05-07 17:06 | 34.99112 | 30.53021 | 37168 ft | 469 kts | 82° |
| 2026-05-07 17:06 | 34.99459 | 30.60960 | 37175 ft | 468 kts | 82° |
| 2026-05-07 17:07 | 34.99798 | 30.68881 | 37169 ft | 468 kts | 82° |
| 2026-05-07 17:07 | 35.00130 | 30.76798 | 37161 ft | 467 kts | 82° |
| 2026-05-07 17:08 | 35.00464 | 30.84718 | 37160 ft | 467 kts | 82° |
| 2026-05-07 17:08 | 35.00792 | 30.92581 | 37156 ft | 467 kts | 82° |
| 2026-05-07 17:09 | 35.01113 | 31.00499 | 37153 ft | 467 kts | 82° |
| 2026-05-07 17:09 | 35.01425 | 31.08405 | 37158 ft | 466 kts | 82° |
| 2026-05-07 17:10 | 35.01735 | 31.16295 | 37161 ft | 466 kts | 82° |
| 2026-05-07 17:10 | 35.02041 | 31.24185 | 37159 ft | 465 kts | 82° |
| 2026-05-07 17:11 | 35.02344 | 31.32059 | 37176 ft | 464 kts | 82° |
| 2026-05-07 17:11 | 35.02631 | 31.39927 | 37168 ft | 464 kts | 82° |
| 2026-05-07 17:12 | 35.02913 | 31.47782 | 37163 ft | 463 kts | 82° |
| 2026-05-07 17:12 | 35.03198 | 31.55639 | 37154 ft | 464 kts | 82° |
| 2026-05-07 17:13 | 35.03479 | 31.63515 | 37155 ft | 464 kts | 82° |
| 2026-05-07 17:13 | 35.03751 | 31.71387 | 37145 ft | 465 kts | 83° |
| 2026-05-07 17:14 | 35.04010 | 31.79280 | 37153 ft | 465 kts | 83° |
| 2026-05-07 17:14 | 35.04272 | 31.87184 | 36220 ft | 472 kts | 82° |
| 2026-05-07 17:15 | 35.04411 | 31.91225 | 35324 ft | 477 kts | 82° |
| 2026-05-07 17:15 | 35.04544 | 31.95263 | 34703 ft | 476 kts | 82° |
| 2026-05-07 17:15 | 35.04672 | 31.99285 | 34166 ft | 473 kts | 82° |
| 2026-05-07 17:15 | 35.04685 | 31.99709 | 34104 ft | 472 kts | 82° |
| 2026-05-07 17:17 | 35.04783 | 32.02823 | 33640 ft | 469 kts | 82° |
| 2026-05-07 17:17 | 35.04906 | 32.06788 | 33052 ft | 465 kts | 82° |
| 2026-05-07 17:17 | 35.05024 | 32.10710 | 32498 ft | 461 kts | 82° |
| 2026-05-07 17:17 | 35.05139 | 32.14580 | 31706 ft | 453 kts | 82° |
| 2026-05-07 17:18 | 35.05250 | 32.18391 | 30809 ft | 446 kts | 83° |
| 2026-05-07 17:18 | 35.05361 | 32.22153 | 29910 ft | 440 kts | 83° |
| 2026-05-07 17:18 | 35.05472 | 32.25864 | 28931 ft | 434 kts | 83° |
| 2026-05-07 17:18 | 35.05582 | 32.29521 | 27991 ft | 428 kts | 83° |
| 2026-05-07 17:19 | 35.05689 | 32.33127 | 27083 ft | 422 kts | 83° |
| 2026-05-07 17:19 | 35.05792 | 32.36686 | 26200 ft | 417 kts | 83° |
| 2026-05-07 17:19 | 35.05895 | 32.40202 | 25331 ft | 412 kts | 84° |
| 2026-05-07 17:19 | 35.05996 | 32.43678 | 24502 ft | 407 kts | 84° |
| 2026-05-07 17:20 | 35.06095 | 32.47107 | 23694 ft | 402 kts | 84° |
| 2026-05-07 17:20 | 35.06194 | 32.50505 | 22794 ft | 398 kts | 84° |
| 2026-05-07 17:20 | 35.06289 | 32.53845 | 22143 ft | 388 kts | 84° |
| 2026-05-07 17:20 | 35.06375 | 32.57072 | 21683 ft | 374 kts | 84° |
| 2026-05-07 17:21 | 35.06454 | 32.60195 | 21229 ft | 364 kts | 84° |
| 2026-05-07 17:21 | 35.06535 | 32.63279 | 20784 ft | 364 kts | 84° |
| 2026-05-07 17:21 | 35.06618 | 32.66361 | 20330 ft | 362 kts | 84° |
| 2026-05-07 17:21 | 35.06704 | 32.69426 | 19881 ft | 361 kts | 84° |
| 2026-05-07 17:22 | 35.06789 | 32.72490 | 19438 ft | 361 kts | 84° |
| 2026-05-07 17:22 | 35.06870 | 32.75556 | 18998 ft | 361 kts | 85° |
| 2026-05-07 17:22 | 35.06949 | 32.78619 | 18557 ft | 361 kts | 85° |
| 2026-05-07 17:22 | 35.07025 | 32.81683 | 18076 ft | 361 kts | 85° |
| 2026-05-07 17:23 | 35.07100 | 32.84741 | 17632 ft | 359 kts | 85° |
| 2026-05-07 17:23 | 35.07174 | 32.87782 | 17203 ft | 357 kts | 85° |
| 2026-05-07 17:23 | 35.07249 | 32.90808 | 16770 ft | 356 kts | 86° |
| 2026-05-07 17:23 | 35.07086 | 32.93818 | 16362 ft | 356 kts | 99° |
| 2026-05-07 17:24 | 35.06403 | 32.96678 | 15963 ft | 356 kts | 108° |
| 2026-05-07 17:24 | 35.05567 | 32.99558 | 15598 ft | 353 kts | 108° |
| 2026-05-07 17:24 | 35.04760 | 33.02338 | 15217 ft | 351 kts | 108° |
| 2026-05-07 17:24 | 35.03955 | 33.05126 | 14813 ft | 349 kts | 108° |
| 2026-05-07 17:25 | 35.03153 | 33.07912 | 14508 ft | 345 kts | 108° |
| 2026-05-07 17:25 | 35.02364 | 33.10659 | 14154 ft | 342 kts | 107° |
| 2026-05-07 17:25 | 35.01586 | 33.13367 | 13557 ft | 335 kts | 107° |
| 2026-05-07 17:25 | 35.00824 | 33.16017 | 13091 ft | 329 kts | 107° |
| 2026-05-07 17:26 | 35.00070 | 33.18641 | 12693 ft | 327 kts | 108° |
| 2026-05-07 17:26 | 34.99323 | 33.21239 | 12210 ft | 321 kts | 108° |
| 2026-05-07 17:26 | 34.98586 | 33.23788 | 11565 ft | 316 kts | 108° |
| 2026-05-07 17:26 | 34.97856 | 33.26301 | 10915 ft | 311 kts | 107° |
| 2026-05-07 17:27 | 34.97137 | 33.28772 | 10287 ft | 306 kts | 108° |
| 2026-05-07 17:27 | 34.96432 | 33.31197 | 9629 ft | 301 kts | 108° |
| 2026-05-07 17:27 | 34.95737 | 33.33591 | 8916 ft | 298 kts | 108° |
| 2026-05-07 17:27 | 34.95050 | 33.35953 | 8221 ft | 294 kts | 107° |
| 2026-05-07 17:28 | 34.94370 | 33.38288 | 7518 ft | 291 kts | 107° |
| 2026-05-07 17:28 | 34.93698 | 33.40595 | 6858 ft | 287 kts | 106° |
| 2026-05-07 17:28 | 34.93035 | 33.42867 | 6189 ft | 282 kts | 106° |
| 2026-05-07 17:28 | 34.92382 | 33.45109 | 5437 ft | 280 kts | 106° |
| 2026-05-07 17:29 | 34.91730 | 33.47353 | 4606 ft | 282 kts | 106° |
| 2026-05-07 17:29 | 34.91077 | 33.49600 | 4073 ft | 280 kts | 106° |
| 2026-05-07 17:29 | 34.90449 | 33.51745 | 4001 ft | 264 kts | 107° |
| 2026-05-07 17:29 | 34.89851 | 33.53776 | 4007 ft | 246 kts | 107° |
| 2026-05-07 17:30 | 34.89291 | 33.55675 | 4009 ft | 230 kts | 106° |
| 2026-05-07 17:30 | 34.88767 | 33.57455 | 4007 ft | 217 kts | 106° |
| 2026-05-07 17:30 | 34.88274 | 33.59132 | 3995 ft | 204 kts | 106° |
| 2026-05-07 17:30 | 34.87875 | 33.60763 | 4010 ft | 199 kts | 96° |
| 2026-05-07 17:31 | 34.87755 | 33.62411 | 4029 ft | 190 kts | 84° |
| 2026-05-07 17:31 | 34.87893 | 33.63972 | 3919 ft | 182 kts | 74° |
| 2026-05-07 17:31 | 34.88255 | 33.65433 | 3627 ft | 179 kts | 64° |
| 2026-05-07 17:31 | 34.88739 | 33.66833 | 3341 ft | 180 kts | 63° |
| 2026-05-07 17:32 | 34.89219 | 33.68242 | 3033 ft | 180 kts | 64° |
| 2026-05-07 17:32 | 34.89695 | 33.69651 | 2750 ft | 179 kts | 64° |
| 2026-05-07 17:32 | 34.90167 | 33.71049 | 2462 ft | 177 kts | 64° |
| 2026-05-07 17:32 | 34.90478 | 33.71966 | 2224 ft | 177 kts | 64° |
| 2026-05-07 17:33 | 34.91088 | 33.73775 | 1974 ft | 166 kts | 64° |
| 2026-05-07 17:33 | 34.91533 | 33.75096 | 1599 ft | 171 kts | 64° |
| 2026-05-07 17:33 | 34.91982 | 33.76426 | 1515 ft | 171 kts | 65° |
| 2026-05-07 17:33 | 34.92437 | 33.77759 | 1507 ft | 168 kts | 62° |
| 2026-05-07 17:34 | 34.93129 | 33.78864 | 1512 ft | 163 kts | 37° |
| 2026-05-07 17:34 | 34.94107 | 33.79514 | 1511 ft | 160 kts | 14° |
| 2026-05-07 17:34 | 34.95198 | 33.79644 | 1511 ft | 157 kts | 352° |
| 2026-05-07 17:34 | 34.96232 | 33.79250 | 1515 ft | 156 kts | 330° |
| 2026-05-07 17:35 | 34.97057 | 33.78403 | 1515 ft | 156 kts | 309° |
| 2026-05-07 17:35 | 34.97554 | 33.77224 | 1512 ft | 159 kts | 287° |
| 2026-05-07 17:35 | 34.97631 | 33.75878 | 1515 ft | 162 kts | 264° |
| 2026-05-07 17:35 | 34.97246 | 33.74583 | 1508 ft | 165 kts | 239° |
| 2026-05-07 17:36 | 34.96476 | 33.73532 | 1507 ft | 166 kts | 228° |
| 2026-05-07 17:36 | 34.95699 | 33.72585 | 1503 ft | 157 kts | 228° |
| 2026-05-07 17:36 | 34.94941 | 33.71657 | 1504 ft | 153 kts | 228° |
| 2026-05-07 17:36 | 34.94191 | 33.70739 | 1459 ft | 153 kts | 228° |
| 2026-05-07 17:37 | 34.93436 | 33.69813 | 1338 ft | 153 kts | 227° |
| 2026-05-07 17:37 | 34.92690 | 33.68900 | 1171 ft | 152 kts | 227° |
| 2026-05-07 17:37 | 34.91952 | 33.67996 | 1008 ft | 148 kts | 226° |
| 2026-05-07 17:37 | 34.91228 | 33.67125 | 877 ft | 146 kts | 225° |
| 2026-05-07 17:38 | 34.90501 | 33.66270 | 739 ft | 145 kts | 227° |
| 2026-05-07 17:38 | 34.89808 | 33.65377 | 503 ft | 145 kts | 229° |
| 2026-05-07 17:38 | 34.89105 | 33.64513 | 306 ft | 141 kts | 227° |
| 2026-05-07 17:38 | 34.88406 | 33.63661 | 110 ft | 142 kts | 229° |
| 2026-05-07 17:39 | 34.87720 | 33.62815 | 23 ft | 136 kts | 229° |
| 2026-05-07 17:39 | 34.87077 | 33.62050 | 121 ft | 137 kts | 229° |
| 2026-05-07 17:39 | 34.86326 | 33.61144 | 641 ft | 168 kts | 227° |
| 2026-05-07 17:39 | 34.85427 | 33.60031 | 1223 ft | 197 kts | 227° |
| 2026-05-07 17:40 | 34.84427 | 33.58780 | 1860 ft | 214 kts | 229° |
| 2026-05-07 17:40 | 34.83351 | 33.57470 | 1987 ft | 221 kts | 224° |
| 2026-05-07 17:40 | 34.81948 | 33.56722 | 2008 ft | 229 kts | 184° |
| 2026-05-07 17:40 | 34.80441 | 33.57272 | 2008 ft | 231 kts | 140° |
| 2026-05-07 17:41 | 34.79594 | 33.58869 | 2014 ft | 227 kts | 97° |
| 2026-05-07 17:41 | 34.79476 | 33.60767 | 2016 ft | 224 kts | 91° |
| 2026-05-07 17:41 | 34.79457 | 33.62666 | 2015 ft | 225 kts | 86° |
| 2026-05-07 17:41 | 34.79511 | 33.64566 | 2004 ft | 224 kts | 83° |
| 2026-05-07 17:42 | 34.79648 | 33.66452 | 1999 ft | 224 kts | 80° |
| 2026-05-07 17:42 | 34.79682 | 33.68331 | 1958 ft | 225 kts | 102° |
| 2026-05-07 17:42 | 34.79320 | 33.70154 | 2071 ft | 223 kts | 101° |
| 2026-05-07 17:42 | 34.78998 | 33.71960 | 2024 ft | 220 kts | 90° |
| 2026-05-07 17:43 | 34.79336 | 33.73735 | 2013 ft | 213 kts | 56° |
| 2026-05-07 17:43 | 34.80217 | 33.75144 | 2018 ft | 212 kts | 47° |
| 2026-05-07 17:43 | 34.81210 | 33.76506 | 2015 ft | 212 kts | 46° |
| 2026-05-07 17:43 | 34.82184 | 33.77819 | 2018 ft | 212 kts | 45° |
| 2026-05-07 17:44 | 34.83172 | 33.79146 | 2017 ft | 212 kts | 45° |
| 2026-05-07 17:44 | 34.84189 | 33.80470 | 2014 ft | 211 kts | 38° |
| 2026-05-07 17:44 | 34.85469 | 33.81198 | 2017 ft | 207 kts | 8° |
| 2026-05-07 17:44 | 34.86896 | 33.81429 | 2010 ft | 207 kts | 11° |
| 2026-05-07 17:45 | 34.88303 | 33.81828 | 2014 ft | 208 kts | 12° |
| 2026-05-07 17:45 | 34.89708 | 33.82242 | 2013 ft | 207 kts | 13° |
| 2026-05-07 17:45 | 34.91103 | 33.82656 | 1998 ft | 207 kts | 12° |
| 2026-05-07 17:45 | 34.92510 | 33.83035 | 1714 ft | 207 kts | 5° |
| 2026-05-07 17:46 | 34.93939 | 33.82973 | 1525 ft | 206 kts | 348° |
| 2026-05-07 17:46 | 34.95282 | 33.82387 | 1514 ft | 206 kts | 331° |
| 2026-05-07 17:46 | 34.96421 | 33.81331 | 1514 ft | 207 kts | 314° |
| 2026-05-07 17:46 | 34.97243 | 33.79891 | 1507 ft | 209 kts | 296° |
| 2026-05-07 17:47 | 34.97665 | 33.78195 | 1515 ft | 211 kts | 279° |
| 2026-05-07 17:47 | 34.97643 | 33.76410 | 1511 ft | 213 kts | 262° |
| 2026-05-07 17:47 | 34.97160 | 33.74696 | 1511 ft | 216 kts | 243° |
| 2026-05-07 17:47 | 34.96236 | 33.73241 | 1511 ft | 218 kts | 227° |
| 2026-05-07 17:48 | 34.95200 | 33.71976 | 1504 ft | 203 kts | 227° |
| 2026-05-07 17:48 | 34.94227 | 33.70785 | 1472 ft | 190 kts | 227° |
| 2026-05-07 17:48 | 34.93341 | 33.69701 | 1328 ft | 172 kts | 227° |
| 2026-05-07 17:48 | 34.92525 | 33.68700 | 1133 ft | 161 kts | 227° |
| 2026-05-07 17:49 | 34.92004 | 33.68062 | 1013 ft | 154 kts | 226° |
| 2026-05-07 17:49 | 34.91267 | 33.67159 | 822 ft | 148 kts | 226° |
| 2026-05-07 17:49 | 34.90553 | 33.66284 | 658 ft | 145 kts | 226° |
| 2026-05-07 17:49 | 34.89852 | 33.65436 | 449 ft | 142 kts | 228° |
| 2026-05-07 17:50 | 34.89170 | 33.64593 | 250 ft | 139 kts | 234° |
| 2026-05-07 17:50 | 34.88478 | 33.63772 | 109 ft | 140 kts | 237° |
| 2026-05-07 17:50 | 34.87814 | 33.62942 | 16 ft | 132 kts | 225° |
| 2026-05-07 17:50 | 34.87270 | 33.62265 | 15 ft | 88 kts | 226° |
| 2026-05-07 17:51 | 34.86961 | 33.61882 | 18 ft | 41 kts | 225° |
| 2026-05-07 17:51 | 34.86776 | 33.61649 | 15 ft | 36 kts | 225° |
| 2026-05-07 17:51 | 34.86632 | 33.61480 | 15 ft | 20 kts | 224° |
| 2026-05-07 17:51 | 34.86553 | 33.61359 | 17 ft | 19 kts | 237° |
| 2026-05-07 17:52 | 34.86491 | 33.61176 | 18 ft | 21 kts | 251° |
| 2026-05-07 17:52 | 34.86477 | 33.61081 | 17 ft | 11 kts | 278° |
| 2026-05-07 17:52 | 34.86533 | 33.61031 | 16 ft | 11 kts | 360° |
| 2026-05-07 17:52 | 34.86594 | 33.61077 | 16 ft | 10 kts | 38° |
| 2026-05-07 17:53 | 34.86651 | 33.61065 | 17 ft | 8 kts | 323° |
| 2026-05-07 17:53 | 34.86691 | 33.61015 | 16 ft | 9 kts | 313° |
| 2026-05-07 17:53 | 34.86740 | 33.60956 | 16 ft | 11 kts | 315° |
| 2026-05-07 17:53 | 34.86801 | 33.60881 | 16 ft | 13 kts | 315° |
| 2026-05-07 17:54 | 34.86858 | 33.60833 | 16 ft | 9 kts | 4° |
| 2026-05-07 17:54 | 34.86888 | 33.60867 | 16 ft | 5 kts | 56° |
| 2026-05-07 17:54 | 34.86910 | 33.60899 | 16 ft | 4 kts | 45° |
| 2026-05-07 17:54 | 34.86918 | 33.60909 | 16 ft | 0 kts | 43° |